Time;durP1;ratioP1;P1;durP2;ratioP2;P2;SDS_P1;SDS_P2;PMS_P1;PMS_P2;Temp;Humidity;BMP_temperature;BMP_pressure;BME280_temperature;BME280_humidity;BME280_pressure;Samples;Min_cycle;Max_cycle;Signal;HPM_P1;HPM_P2
2023/08/18 00:01:19;;;;;;;9.55;5.38;;;17.50;99.90;;;;;;5041211;28;20132;-75
2023/08/18 00:03:45;;;;;;;8.63;5.10;;;17.60;99.90;;;;;;5037552;28;20099;-76
2023/08/18 00:06:12;;;;;;;9.38;4.90;;;17.50;99.90;;;;;;5039991;28;20073;-76
2023/08/18 00:08:37;;;;;;;10.00;4.77;;;17.50;99.90;;;;;;5038850;28;20128;-76
2023/08/18 00:11:03;;;;;;;11.88;5.00;;;17.50;99.90;;;;;;5043673;28;20132;-76
2023/08/18 00:13:29;;;;;;;8.80;4.93;;;17.50;99.90;;;;;;5043462;28;20052;-76
2023/08/18 00:15:55;;;;;;;10.27;4.97;;;17.50;99.90;;;;;;5044584;28;21882;-76
2023/08/18 00:18:20;;;;;;;11.55;5.60;;;17.50;99.90;;;;;;5035617;28;20046;-76
2023/08/18 00:20:47;;;;;;;7.65;4.30;;;17.50;99.90;;;;;;5040587;28;20037;-76
2023/08/18 00:23:13;;;;;;;10.25;4.88;;;17.50;99.90;;;;;;5041641;28;20041;-75
2023/08/18 00:25:38;;;;;;;8.50;4.45;;;17.50;99.90;;;;;;5039022;28;20037;-76
2023/08/18 00:28:05;;;;;;;10.05;4.68;;;17.50;99.90;;;;;;5047555;28;20052;-75
2023/08/18 00:30:31;;;;;;;8.65;4.68;;;17.50;99.90;;;;;;5047377;28;20044;-76
2023/08/18 00:32:56;;;;;;;7.22;4.65;;;17.50;99.90;;;;;;5043652;28;20615;-76
2023/08/18 00:35:22;;;;;;;10.50;5.22;;;17.50;99.90;;;;;;5040072;28;20120;-76
2023/08/18 00:37:50;;;;;;;9.82;5.13;;;17.40;99.90;;;;;;5044661;28;20511;-76
2023/08/18 00:40:16;;;;;;;8.50;4.80;;;17.40;99.90;;;;;;5035252;28;20163;-76
2023/08/18 00:42:42;;;;;;;9.43;4.82;;;17.40;99.90;;;;;;5046728;28;20129;-75
2023/08/18 00:45:08;;;;;;;9.45;4.43;;;17.40;99.90;;;;;;5062013;28;20036;-75
2023/08/18 00:47:35;;;;;;;8.27;4.60;;;17.40;99.90;;;;;;5044331;28;20044;-75
2023/08/18 00:50:02;;;;;;;7.53;4.72;;;17.30;99.90;;;;;;5033927;28;20064;-75
2023/08/18 00:52:28;;;;;;;12.05;5.47;;;17.30;99.90;;;;;;5041678;28;20140;-76
2023/08/18 00:54:54;;;;;;;8.32;4.65;;;17.30;99.90;;;;;;5045677;28;20115;-75
2023/08/18 00:57:20;;;;;;;11.27;4.93;;;17.40;99.90;;;;;;5047398;28;20516;-75
2023/08/18 00:59:46;;;;;;;9.00;5.10;;;17.30;99.90;;;;;;5042753;28;20059;-76
2023/08/18 01:02:12;;;;;;;9.50;4.75;;;17.40;99.90;;;;;;5043157;28;20076;-75
2023/08/18 01:04:38;;;;;;;9.05;4.45;;;17.30;99.90;;;;;;5046385;28;20045;-76
2023/08/18 01:07:04;;;;;;;10.10;5.00;;;17.40;99.90;;;;;;5044969;28;20045;-76
2023/08/18 01:09:31;;;;;;;12.10;4.60;;;17.40;99.90;;;;;;5038976;28;20049;-76
2023/08/18 01:12:24;;;;;;;11.43;4.40;;;17.40;99.90;;;;;;5041810;28;20514;-76
2023/08/18 01:14:53;;;;;;;10.75;4.85;;;17.40;99.90;;;;;;5044287;28;20049;-76
2023/08/18 01:17:27;;;;;;;12.45;4.32;;;17.40;99.90;;;;;;5043746;28;20048;-76
2023/08/18 01:19:53;;;;;;;9.50;4.85;;;17.40;99.90;;;;;;5038124;28;20041;-76
2023/08/18 01:22:19;;;;;;;7.97;4.17;;;17.40;99.90;;;;;;5055554;28;20080;-76
2023/08/18 01:24:45;;;;;;;6.78;4.60;;;17.40;99.90;;;;;;5051646;28;20495;-76
2023/08/18 01:27:10;;;;;;;12.52;4.90;;;17.40;99.90;;;;;;5050100;28;20053;-76
2023/08/18 01:29:36;;;;;;;7.70;4.60;;;17.40;99.90;;;;;;5050982;28;20531;-76
2023/08/18 01:32:05;;;;;;;7.18;4.13;;;17.40;99.90;;;;;;5041336;28;20488;-76
2023/08/18 01:34:33;;;;;;;8.95;4.47;;;17.40;99.90;;;;;;5050336;28;20072;-76
2023/08/18 01:37:00;;;;;;;8.55;4.25;;;17.40;99.90;;;;;;5046361;28;20463;-76
2023/08/18 01:39:28;;;;;;;7.82;4.43;;;17.40;99.90;;;;;;5047391;28;20476;-76
2023/08/18 01:41:54;;;;;;;8.38;4.47;;;17.40;99.90;;;;;;5043703;28;20056;-76
2023/08/18 01:44:19;;;;;;;10.43;4.70;;;17.40;99.90;;;;;;5052778;28;20119;-76
2023/08/18 01:46:46;;;;;;;8.15;4.57;;;17.40;99.90;;;;;;5048202;28;20104;-76
2023/08/18 01:49:13;;;;;;;11.77;5.05;;;17.40;99.90;;;;;;5047284;28;20042;-76
2023/08/18 01:51:38;;;;;;;11.10;4.90;;;17.30;99.90;;;;;;5042914;28;20428;-76
2023/08/18 01:54:04;;;;;;;8.88;4.75;;;17.30;99.90;;;;;;5037090;28;20057;-76
2023/08/18 01:56:30;;;;;;;11.13;5.35;;;17.30;99.90;;;;;;5038002;28;20041;-76
2023/08/18 01:58:56;;;;;;;10.23;5.15;;;17.30;99.90;;;;;;5044668;28;20053;-76
2023/08/18 02:01:22;;;;;;;11.85;5.55;;;17.30;99.90;;;;;;5038524;28;20056;-76
2023/08/18 02:03:48;;;;;;;9.57;4.80;;;17.30;99.90;;;;;;5045184;28;20045;-76
2023/08/18 02:06:14;;;;;;;11.88;5.30;;;17.20;99.90;;;;;;5042939;28;20059;-76
2023/08/18 02:08:40;;;;;;;10.80;5.80;;;17.30;99.90;;;;;;5040914;28;20510;-76
2023/08/18 02:11:06;;;;;;;10.73;5.38;;;17.30;99.90;;;;;;5043647;28;20037;-76
2023/08/18 02:13:32;;;;;;;10.85;5.28;;;17.30;99.90;;;;;;5045164;28;20052;-76
2023/08/18 02:15:58;;;;;;;8.77;4.97;;;17.30;99.90;;;;;;5042194;28;20042;-76
2023/08/18 02:18:24;;;;;;;8.60;5.10;;;17.30;99.90;;;;;;5063067;28;20696;-76
2023/08/18 02:20:58;;;;;;;8.60;4.88;;;17.30;99.90;;;;;;5043007;28;20053;-76
2023/08/18 02:23:23;;;;;;;10.70;5.05;;;17.30;99.90;;;;;;5048861;28;20647;-76
2023/08/18 02:25:49;;;;;;;11.65;5.70;;;17.30;99.90;;;;;;5037364;28;20087;-76
2023/08/18 02:28:17;;;;;;;11.10;5.50;;;17.30;99.90;;;;;;5041172;28;20045;-76
2023/08/18 02:30:44;;;;;;;10.38;5.53;;;17.30;99.90;;;;;;5036189;28;20056;-76
2023/08/18 02:33:10;;;;;;;12.27;5.80;;;17.30;99.90;;;;;;5043197;28;20484;-76
2023/08/18 02:35:35;;;;;;;10.57;5.78;;;17.30;99.90;;;;;;5035457;28;20053;-76
2023/08/18 02:38:01;;;;;;;13.27;6.10;;;17.30;99.90;;;;;;5050020;28;20041;-76
2023/08/18 02:40:27;;;;;;;9.82;5.50;;;17.30;99.90;;;;;;5046072;28;20510;-76
2023/08/18 02:42:52;;;;;;;10.68;5.80;;;17.20;99.90;;;;;;5055869;28;20392;-76
2023/08/18 02:45:18;;;;;;;9.98;6.05;;;17.30;99.90;;;;;;5044045;28;20045;-76
2023/08/18 02:47:44;;;;;;;10.32;5.90;;;17.30;99.90;;;;;;5045875;28;20045;-76
2023/08/18 02:50:10;;;;;;;13.77;5.95;;;17.30;99.90;;;;;;5043495;28;20048;-76
2023/08/18 02:52:36;;;;;;;9.55;5.53;;;17.20;99.90;;;;;;5045540;28;20037;-76
2023/08/18 02:55:01;;;;;;;11.55;5.93;;;17.30;99.90;;;;;;5045589;28;20122;-76
2023/08/18 02:57:27;;;;;;;13.45;5.85;;;17.30;99.90;;;;;;5044839;28;20053;-76
2023/08/18 02:59:53;;;;;;;11.02;6.05;;;17.30;99.90;;;;;;5045627;28;20041;-76
2023/08/18 03:02:18;;;;;;;10.80;5.53;;;17.20;99.90;;;;;;5048778;28;20059;-76
2023/08/18 03:04:44;;;;;;;11.18;5.72;;;17.20;99.90;;;;;;5045459;28;20033;-76
2023/08/18 03:07:10;;;;;;;12.07;6.50;;;17.20;99.90;;;;;;5035571;28;20049;-76
2023/08/18 03:09:35;;;;;;;13.20;6.50;;;17.30;99.90;;;;;;5043720;28;20060;-76
2023/08/18 03:12:01;;;;;;;9.48;5.47;;;17.30;99.90;;;;;;5047892;28;20033;-76
2023/08/18 03:14:27;;;;;;;13.60;6.85;;;17.30;99.90;;;;;;5050198;28;20033;-76
2023/08/18 03:16:52;;;;;;;11.10;6.55;;;17.20;99.90;;;;;;5047797;28;20041;-76
2023/08/18 03:19:18;;;;;;;12.75;6.72;;;17.20;99.90;;;;;;5046337;28;20300;-76
2023/08/18 03:21:44;;;;;;;13.55;6.80;;;17.20;99.90;;;;;;5046635;28;20124;-76
2023/08/18 03:24:09;;;;;;;12.60;6.30;;;17.20;99.90;;;;;;5037659;28;20052;-76
2023/08/18 03:26:35;;;;;;;10.52;6.40;;;17.30;99.90;;;;;;5038877;28;20048;-76
2023/08/18 03:29:01;;;;;;;13.45;6.53;;;17.30;99.90;;;;;;5045081;28;20057;-75
2023/08/18 03:31:26;;;;;;;10.85;6.85;;;17.30;99.90;;;;;;5043365;28;20037;-76
2023/08/18 03:33:52;;;;;;;10.43;6.68;;;17.30;99.90;;;;;;5043534;28;20059;-76
2023/08/18 03:36:18;;;;;;;12.20;6.53;;;17.20;99.90;;;;;;5035316;28;20045;-76
2023/08/18 03:38:44;;;;;;;13.48;7.18;;;17.20;99.90;;;;;;5044747;28;20040;-76
2023/08/18 03:41:09;;;;;;;10.70;6.45;;;17.20;99.90;;;;;;5044563;28;20135;-76
2023/08/18 03:43:35;;;;;;;11.73;6.43;;;17.20;99.90;;;;;;5044853;28;20485;-76
2023/08/18 03:46:22;;;;;;;12.10;7.15;;;17.20;99.90;;;;;;5042629;28;20431;-76
2023/08/18 03:48:49;;;;;;;11.43;6.53;;;17.20;99.90;;;;;;5039758;28;20048;-75
2023/08/18 03:51:14;;;;;;;12.05;6.78;;;17.20;99.90;;;;;;5045558;28;20040;-76
2023/08/18 03:53:40;;;;;;;10.10;6.88;;;17.20;99.90;;;;;;5039339;28;20041;-76
2023/08/18 03:56:06;;;;;;;9.07;6.78;;;17.20;99.90;;;;;;5046099;28;20124;-76
2023/08/18 03:58:32;;;;;;;13.65;7.25;;;17.20;99.90;;;;;;5048194;28;20037;-76
2023/08/18 04:01:06;;;;;;;11.20;6.68;;;17.20;99.90;;;;;;5043209;28;20816;-76
2023/08/18 04:03:36;;;;;;;8.88;6.40;;;17.20;99.90;;;;;;5035858;28;20057;-76
2023/08/18 04:06:03;;;;;;;11.10;6.47;;;17.20;99.90;;;;;;5042396;28;20133;-76
2023/08/18 04:08:33;;;;;;;13.05;7.10;;;17.20;99.90;;;;;;5043280;28;20779;-76
2023/08/18 04:10:59;;;;;;;10.75;6.90;;;17.20;99.90;;;;;;5036275;28;20067;-76
2023/08/18 04:13:24;;;;;;;12.25;6.80;;;17.20;99.90;;;;;;5064054;28;20049;-76
2023/08/18 04:15:50;;;;;;;11.25;6.65;;;17.20;99.90;;;;;;5043756;28;20051;-76
2023/08/18 04:18:16;;;;;;;9.73;6.03;;;17.20;99.90;;;;;;5046443;28;20117;-76
2023/08/18 04:20:42;;;;;;;11.15;6.45;;;17.20;99.90;;;;;;5059782;28;20045;-76
2023/08/18 04:23:07;;;;;;;12.27;6.45;;;17.20;99.90;;;;;;5041312;28;20056;-76
2023/08/18 04:25:33;;;;;;;9.80;6.45;;;17.20;99.90;;;;;;5044747;28;20510;-76
2023/08/18 04:27:59;;;;;;;9.82;6.50;;;17.10;99.90;;;;;;5038399;28;20045;-76
2023/08/18 04:30:24;;;;;;;9.68;6.38;;;17.10;99.90;;;;;;5039299;28;20037;-76
2023/08/18 04:32:50;;;;;;;12.70;7.00;;;17.10;99.90;;;;;;5044087;28;20037;-76
2023/08/18 04:35:16;;;;;;;12.50;7.25;;;17.10;99.90;;;;;;5044317;28;20387;-76
2023/08/18 04:37:42;;;;;;;10.50;6.93;;;17.20;99.90;;;;;;5042362;28;20053;-76
2023/08/18 04:40:08;;;;;;;8.88;5.97;;;17.10;99.90;;;;;;5039246;28;20052;-76
2023/08/18 04:42:34;;;;;;;13.02;6.82;;;17.10;99.90;;;;;;5043862;28;20553;-75
2023/08/18 04:44:59;;;;;;;12.98;7.15;;;17.20;99.90;;;;;;5041210;28;20049;-76
2023/08/18 04:47:25;;;;;;;10.73;6.43;;;17.20;99.90;;;;;;5045358;28;20037;-75
2023/08/18 04:49:50;;;;;;;11.13;7.10;;;17.20;99.90;;;;;;5040752;28;20047;-75
2023/08/18 04:52:17;;;;;;;13.00;6.85;;;17.20;99.90;;;;;;5038413;28;20079;-75
2023/08/18 04:54:42;;;;;;;9.80;6.78;;;17.20;99.90;;;;;;5035606;28;20507;-75
2023/08/18 04:57:08;;;;;;;11.27;6.82;;;17.20;99.90;;;;;;5049160;28;20034;-75
2023/08/18 04:59:34;;;;;;;10.63;7.22;;;17.20;99.90;;;;;;5042748;28;20495;-75
2023/08/18 05:01:59;;;;;;;11.55;7.45;;;17.30;99.90;;;;;;5047125;28;20041;-75
2023/08/18 05:04:25;;;;;;;10.95;7.10;;;17.30;99.90;;;;;;5047615;28;20048;-75
2023/08/18 05:06:51;;;;;;;8.73;6.55;;;17.20;99.90;;;;;;5043972;28;20048;-75
2023/08/18 05:09:17;;;;;;;11.13;7.07;;;17.20;99.90;;;;;;5048461;28;20392;-76
2023/08/18 05:11:42;;;;;;;11.90;7.05;;;17.20;99.90;;;;;;5045774;28;20493;-76
2023/08/18 05:14:08;;;;;;;12.25;7.30;;;17.20;99.90;;;;;;5042065;28;20080;-76
2023/08/18 05:16:34;;;;;;;9.82;6.85;;;17.30;99.90;;;;;;5048548;28;20602;-77
2023/08/18 05:18:59;;;;;;;13.25;7.65;;;17.20;99.90;;;;;;5050136;28;20033;-78
2023/08/18 05:21:25;;;;;;;12.10;7.35;;;17.30;99.90;;;;;;5057991;28;20048;-75
2023/08/18 05:23:51;;;;;;;10.40;7.00;;;17.30;99.90;;;;;;5043541;28;20387;-75
2023/08/18 05:26:16;;;;;;;9.73;6.93;;;17.20;99.90;;;;;;5042391;28;20037;-76
2023/08/18 05:28:44;;;;;;;11.45;7.63;;;17.30;99.90;;;;;;5034745;28;20057;-76
2023/08/18 05:31:10;;;;;;;;;;;17.30;99.90;;;;;;5045242;28;20041;-76
2023/08/18 05:33:35;;;;;;;12.00;7.38;;;17.30;99.90;;;;;;5045847;28;19921;-76
2023/08/18 05:36:05;;;;;;;12.23;7.80;;;17.20;99.90;;;;;;5046144;28;20041;-76
2023/08/18 05:38:31;;;;;;;10.05;7.25;;;17.30;99.90;;;;;;5034919;28;20057;-77
2023/08/18 05:41:09;;;;;;;11.23;7.40;;;17.30;99.90;;;;;;5031305;28;20055;-77
2023/08/18 05:43:37;;;;;;;13.07;8.20;;;17.30;99.90;;;;;;5039650;28;20046;-77
2023/08/18 05:46:04;;;;;;;13.35;7.78;;;17.30;99.90;;;;;;5046071;28;20092;-78
2023/08/18 05:48:33;;;;;;;10.48;7.20;;;17.30;99.90;;;;;;5053532;28;20048;-78
2023/08/18 05:51:00;;;;;;;13.18;7.50;;;17.30;99.90;;;;;;5038247;28;20134;-78
2023/08/18 05:53:26;;;;;;;17.08;7.85;;;17.30;99.90;;;;;;5044777;28;20044;-78
2023/08/18 05:55:52;;;;;;;12.00;7.63;;;17.30;99.90;;;;;;5042471;28;20051;-78
2023/08/18 05:58:19;;;;;;;13.18;7.60;;;17.30;99.90;;;;;;5032364;28;20056;-78
2023/08/18 06:00:47;;;;;;;12.60;7.15;;;17.30;99.90;;;;;;5039761;28;20038;-80
2023/08/18 06:03:19;;;;;;;13.35;7.45;;;17.30;99.90;;;;;;5041958;28;20401;-78
2023/08/18 06:05:48;;;;;;;13.25;7.90;;;17.30;99.90;;;;;;5040503;28;20087;-78
2023/08/18 06:08:14;;;;;;;12.40;7.47;;;17.30;99.90;;;;;;5046883;28;20044;-78
2023/08/18 06:10:41;;;;;;;13.65;8.48;;;17.40;99.90;;;;;;5044980;28;20044;-78
2023/08/18 06:13:07;;;;;;;17.15;8.32;;;17.40;99.90;;;;;;5046601;28;20052;-79
2023/08/18 06:15:33;;;;;;;13.13;8.20;;;17.40;99.90;;;;;;5043847;28;20147;-76
2023/08/18 06:17:59;;;;;;;17.75;8.60;;;17.40;99.90;;;;;;5041998;28;20137;-79
2023/08/18 06:20:24;;;;;;;13.65;9.05;;;17.40;99.90;;;;;;5041478;28;20061;-79
2023/08/18 06:22:50;;;;;;;14.98;9.20;;;17.40;99.90;;;;;;5033029;28;20079;-78
2023/08/18 06:25:16;;;;;;;15.93;9.82;;;17.50;99.90;;;;;;5044292;28;20037;-79
2023/08/18 06:27:41;;;;;;;15.30;9.27;;;17.50;99.90;;;;;;5044610;28;20045;-78
2023/08/18 06:30:08;;;;;;;18.77;10.35;;;17.50;99.90;;;;;;5041463;28;20044;-79
2023/08/18 06:32:33;;;;;;;18.00;9.55;;;17.50;99.90;;;;;;5040350;28;20080;-78
2023/08/18 06:34:59;;;;;;;17.42;9.23;;;17.60;99.90;;;;;;5039141;28;20077;-77
2023/08/18 06:37:26;;;;;;;16.90;10.02;;;17.70;99.90;;;;;;5038717;28;20369;-76
2023/08/18 06:39:51;;;;;;;19.20;11.23;;;17.70;99.90;;;;;;5043486;28;20450;-77
2023/08/18 06:42:17;;;;;;;19.02;10.43;;;17.70;99.90;;;;;;5041676;28;20135;-77
2023/08/18 06:44:43;;;;;;;15.40;9.52;;;17.80;99.90;;;;;;5046977;28;20480;-78
2023/08/18 06:47:09;;;;;;;17.90;10.80;;;17.80;99.90;;;;;;5047509;28;20045;-77
2023/08/18 06:49:34;;;;;;;20.55;10.32;;;17.80;99.90;;;;;;5049283;28;20435;-78
2023/08/18 06:52:00;;;;;;;14.77;9.48;;;17.80;99.90;;;;;;5040299;28;20077;-74
2023/08/18 06:54:26;;;;;;;16.75;10.07;;;17.90;99.90;;;;;;5036791;28;20045;-77
2023/08/18 06:56:51;;;;;;;19.15;11.05;;;17.90;99.90;;;;;;5048542;28;20047;-73
2023/08/18 06:59:17;;;;;;;18.42;11.13;;;17.90;99.90;;;;;;5041922;28;20112;-74
2023/08/18 07:01:43;;;;;;;20.15;11.68;;;17.90;99.90;;;;;;5047381;28;20721;-74
2023/08/18 07:04:09;;;;;;;19.77;11.43;;;17.90;99.90;;;;;;5043490;28;20099;-74
2023/08/18 07:06:35;;;;;;;17.80;11.43;;;17.90;99.90;;;;;;5049037;28;20049;-75
2023/08/18 07:09:03;;;;;;;22.10;12.02;;;17.80;99.90;;;;;;5049594;28;20048;-77
2023/08/18 07:11:29;;;;;;;19.13;11.80;;;17.90;99.90;;;;;;5049493;28;20450;-76
2023/08/18 07:13:55;;;;;;;20.95;12.13;;;17.80;99.90;;;;;;5049104;28;20032;-75
2023/08/18 07:16:20;;;;;;;21.45;11.88;;;17.80;99.90;;;;;;5048847;28;20108;-80
2023/08/18 07:18:46;;;;;;;21.33;11.25;;;17.80;99.90;;;;;;5047198;28;20037;-80
2023/08/18 07:21:12;;;;;;;19.73;13.48;;;17.80;99.90;;;;;;5046537;28;20051;-79
2023/08/18 07:23:38;;;;;;;22.38;14.15;;;17.90;99.90;;;;;;5051467;28;20137;-79
2023/08/18 07:26:03;;;;;;;26.42;15.13;;;17.90;99.90;;;;;;5050732;28;20063;-81
2023/08/18 07:28:29;;;;;;;24.23;15.05;;;17.80;99.90;;;;;;5046898;28;20053;-80
2023/08/18 07:31:00;;;;;;;24.83;14.30;;;17.90;99.90;;;;;;5045728;28;20052;-82
2023/08/18 07:33:26;;;;;;;23.83;14.65;;;17.90;99.90;;;;;;5049317;28;20090;-83
2023/08/18 07:35:51;;;;;;;25.50;15.98;;;17.90;99.90;;;;;;5048161;28;20068;-84
2023/08/18 07:38:17;;;;;;;29.63;17.73;;;18.00;99.90;;;;;;5042986;28;20049;-80
2023/08/18 07:40:43;;;;;;;28.15;16.33;;;18.00;99.90;;;;;;5049144;28;20033;-83
2023/08/18 07:43:08;;;;;;;28.08;17.83;;;18.00;99.90;;;;;;5049188;28;20144;-84
2023/08/18 07:45:34;;;;;;;30.35;18.95;;;18.10;99.90;;;;;;5050258;28;20059;-84
2023/08/18 07:48:00;;;;;;;31.23;17.05;;;18.10;99.90;;;;;;5048547;28;20041;-79
2023/08/18 07:50:25;;;;;;;27.25;16.02;;;18.20;99.90;;;;;;5051049;28;20083;-80
2023/08/18 07:52:51;;;;;;;29.45;17.17;;;18.20;99.90;;;;;;5049119;28;20048;-82
2023/08/18 07:55:20;;;;;;;27.33;16.13;;;18.20;99.90;;;;;;5044890;28;20041;-83
2023/08/18 07:57:46;;;;;;;27.90;16.00;;;18.30;99.90;;;;;;5040582;28;20045;-81
2023/08/18 08:00:17;;;;;;;29.65;17.15;;;18.40;99.90;;;;;;5047151;28;20049;-76
2023/08/18 08:02:47;;;;;;;28.45;16.40;;;18.50;99.90;;;;;;5047039;28;20408;-75
2023/08/18 08:05:16;;;;;;;30.90;17.52;;;18.50;99.90;;;;;;5037566;28;20033;-79
2023/08/18 08:07:41;;;;;;;29.50;17.08;;;18.60;99.90;;;;;;5038324;28;20138;-80
2023/08/18 08:10:08;;;;;;;30.70;17.70;;;18.60;99.90;;;;;;5050203;28;20045;-77
2023/08/18 08:12:38;;;;;;;28.42;16.23;;;18.70;99.90;;;;;;5045622;28;20046;-80
2023/08/18 08:15:04;;;;;;;29.13;16.00;;;18.80;99.90;;;;;;5045364;28;20056;-77
2023/08/18 08:17:30;;;;;;;30.15;16.10;;;19.00;99.90;;;;;;5038515;28;20045;-79
2023/08/18 08:19:56;;;;;;;26.38;15.93;;;19.10;99.90;;;;;;5047595;28;20059;-77
2023/08/18 08:22:23;;;;;;;26.98;15.73;;;19.20;99.90;;;;;;5049384;28;20125;-78
2023/08/18 08:24:50;;;;;;;24.35;14.25;;;19.30;99.90;;;;;;5039671;28;20048;-77
2023/08/18 08:27:18;;;;;;;23.20;13.43;;;19.40;99.90;;;;;;5046148;28;20124;-78
2023/08/18 08:29:43;;;;;;;21.70;13.80;;;19.50;99.90;;;;;;5047229;28;20488;-75
2023/08/18 08:32:09;;;;;;;27.17;14.00;;;19.60;99.90;;;;;;5046639;28;20090;-78
2023/08/18 08:34:39;;;;;;;21.92;13.27;;;19.60;99.90;;;;;;5044273;28;20043;-74
2023/08/18 08:37:06;;;;;;;23.30;12.55;;;19.60;99.90;;;;;;5049838;28;20053;-74
2023/08/18 08:39:31;;;;;;;19.83;12.43;;;19.60;99.90;;;;;;5049221;28;20036;-75
2023/08/18 08:41:57;;;;;;;22.77;12.75;;;19.70;99.90;;;;;;5048103;28;20064;-74
2023/08/18 08:44:24;;;;;;;18.02;12.07;;;19.70;99.90;;;;;;5044884;28;20041;-74
2023/08/18 08:46:51;;;;;;;19.17;11.15;;;19.80;99.90;;;;;;5047204;28;20068;-73
2023/08/18 08:49:18;;;;;;;21.20;11.98;;;19.80;99.90;;;;;;5047218;28;20045;-74
2023/08/18 08:51:46;;;;;;;19.38;11.05;;;19.90;99.90;;;;;;5044568;28;20033;-74
2023/08/18 08:54:17;;;;;;;18.33;10.23;;;19.90;99.90;;;;;;5039823;28;20096;-76
2023/08/18 08:56:46;;;;;;;20.73;11.65;;;20.00;99.90;;;;;;5046678;28;20579;-75
2023/08/18 08:59:11;;;;;;;16.38;10.48;;;20.00;99.90;;;;;;5044351;28;20239;-76
2023/08/18 09:01:37;;;;;;;15.85;9.70;;;20.00;99.90;;;;;;5043462;28;20477;-75
2023/08/18 09:04:04;;;;;;;15.93;9.85;;;20.10;99.90;;;;;;5063362;28;20060;-75
2023/08/18 09:06:30;;;;;;;17.30;10.55;;;20.10;99.90;;;;;;5046111;28;20043;-75
2023/08/18 09:08:56;;;;;;;15.25;9.55;;;20.20;99.90;;;;;;5043281;28;20563;-75
2023/08/18 09:11:59;;;;;;;13.90;9.90;;;20.20;99.90;;;;;;5046962;28;20557;-75
2023/08/18 09:14:27;;;;;;;13.65;9.77;;;20.30;99.90;;;;;;5034085;28;21157;-76
2023/08/18 09:16:53;;;;;;;15.98;9.68;;;20.30;99.90;;;;;;5046160;28;20033;-74
2023/08/18 09:19:18;;;;;;;13.30;9.98;;;20.30;99.90;;;;;;5038140;28;20040;-78
2023/08/18 09:21:44;;;;;;;15.45;9.60;;;20.40;99.90;;;;;;5046653;28;20107;-78
2023/08/18 09:24:10;;;;;;;12.50;9.25;;;20.40;99.90;;;;;;5047621;28;20472;-78
2023/08/18 09:26:35;;;;;;;13.85;9.85;;;20.50;99.90;;;;;;5047328;28;20051;-82
2023/08/18 09:29:03;;;;;;;12.65;9.88;;;20.50;99.90;;;;;;5045072;28;20511;-79
2023/08/18 09:31:29;;;;;;;12.10;9.00;;;20.50;99.90;;;;;;5040171;28;20055;-80
2023/08/18 09:33:55;;;;;;;11.87;9.83;;;20.50;99.90;;;;;;5047618;28;20048;-79
2023/08/18 09:36:20;;;;;;;13.43;9.95;;;20.50;99.90;;;;;;5052631;28;20790;-81
2023/08/18 09:38:46;;;;;;;11.95;9.63;;;20.60;99.90;;;;;;5064747;28;20049;-82
2023/08/18 09:41:12;;;;;;;12.07;8.95;;;20.60;99.90;;;;;;5051264;28;20037;-79
2023/08/18 09:43:41;;;;;;;11.48;9.75;;;20.70;99.90;;;;;;5051302;28;20078;-82
2023/08/18 09:46:08;;;;;;;10.70;9.38;;;20.80;99.90;;;;;;5046150;28;20048;-86
2023/08/18 09:48:35;;;;;;;11.73;9.68;;;20.80;99.90;;;;;;5039369;28;20084;-92
2023/08/18 09:51:05;;;;;;;10.68;9.38;;;20.80;99.90;;;;;;5043249;28;20065;-83
2023/08/18 09:53:32;;;;;;;13.80;10.40;;;20.90;99.90;;;;;;5044798;28;20041;-84
2023/08/18 09:56:12;;;;;;;11.48;9.70;;;20.90;99.90;;;;;;5068964;28;20099;-84
2023/08/18 09:58:52;;;;;;;14.23;9.93;;;21.00;99.90;;;;;;5059789;28;20056;-83
2023/08/18 10:01:19;;;;;;;15.57;9.95;;;21.10;99.90;;;;;;5058411;28;20095;-82
2023/08/18 10:03:46;;;;;;;13.90;10.57;;;21.20;99.90;;;;;;5068377;28;20057;-81
2023/08/18 10:06:12;;;;;;;12.65;8.88;;;21.30;99.90;;;;;;5061794;28;20112;-86
2023/08/18 10:08:40;;;;;;;12.40;9.45;;;21.30;99.90;;;;;;5049537;28;20052;-80
2023/08/18 10:11:07;;;;;;;12.23;10.45;;;21.40;99.90;;;;;;5050722;28;20041;-80
2023/08/18 10:13:34;;;;;;;12.13;10.00;;;21.40;99.90;;;;;;5051487;28;20040;-81
2023/08/18 10:16:06;;;;;;;10.45;9.15;;;21.50;99.90;;;;;;5049550;28;20106;-81
2023/08/18 10:18:32;;;;;;;13.30;11.13;;;21.60;99.90;;;;;;5060576;28;20037;-81
2023/08/18 10:20:59;;;;;;;12.85;10.43;;;21.70;99.90;;;;;;5049173;28;20053;-81
2023/08/18 10:23:28;;;;;;;13.48;10.70;;;21.70;99.90;;;;;;5042678;28;20123;-80
2023/08/18 10:25:54;;;;;;;15.27;11.55;;;21.80;99.90;;;;;;5041927;28;20139;-79
2023/08/18 10:28:22;;;;;;;12.48;10.88;;;21.80;99.90;;;;;;5038341;28;20539;-78
2023/08/18 10:30:57;;;;;;;15.43;11.18;;;21.90;99.90;;;;;;5042418;28;20120;-78
2023/08/18 10:33:35;;;;;;;13.57;11.05;;;22.00;99.90;;;;;;5046369;28;20048;-77
2023/08/18 10:36:03;;;;;;;14.30;10.63;;;22.00;99.90;;;;;;5046404;28;20049;-78
2023/08/18 10:38:29;;;;;;;13.07;10.40;;;22.10;99.90;;;;;;5048374;28;20044;-77
2023/08/18 10:40:56;;;;;;;13.00;10.65;;;22.20;99.90;;;;;;5043456;28;20049;-76
2023/08/18 10:43:26;;;;;;;14.98;10.70;;;22.30;99.90;;;;;;5044491;28;20128;-77
2023/08/18 10:45:58;;;;;;;12.18;10.52;;;22.40;99.90;;;;;;5046948;28;20394;-77
2023/08/18 10:48:30;;;;;;;14.00;10.50;;;22.50;99.90;;;;;;5046607;28;20114;-77
2023/08/18 10:50:55;;;;;;;13.55;10.98;;;22.60;99.90;;;;;;5048918;28;20041;-77
2023/08/18 10:53:21;;;;;;;13.90;11.52;;;22.80;99.90;;;;;;5047330;28;20094;-78
2023/08/18 10:55:47;;;;;;;14.30;11.75;;;23.00;99.90;;;;;;5048386;28;20507;-79
2023/08/18 10:58:14;;;;;;;14.05;11.82;;;23.20;99.90;;;;;;5042481;28;20271;-81
2023/08/18 11:00:41;;;;;;;13.05;11.45;;;23.50;99.90;;;;;;5044401;28;20106;-80
2023/08/18 11:03:07;;;;;;;13.27;11.87;;;23.50;99.90;;;;;;5050304;28;20619;-79
2023/08/18 11:05:34;;;;;;;14.05;11.40;;;23.50;99.90;;;;;;5049075;28;20056;-79
2023/08/18 11:08:01;;;;;;;14.18;12.70;;;23.50;99.90;;;;;;5050969;28;20102;-83
2023/08/18 11:10:27;;;;;;;15.18;13.55;;;23.40;99.90;;;;;;5042251;28;20044;-83
2023/08/18 11:12:54;;;;;;;12.93;11.35;;;23.40;99.90;;;;;;5056725;28;20052;-82
2023/08/18 11:15:21;;;;;;;13.38;11.98;;;23.40;99.90;;;;;;5043306;28;20033;-88
2023/08/18 11:17:47;;;;;;;;;;;23.40;99.90;;;;;;5043367;28;20051;-83
2023/08/18 11:20:13;;;;;;;14.80;12.00;;;23.40;99.90;;;;;;5044731;28;20031;-80
2023/08/18 11:22:44;;;;;;;13.80;11.83;;;23.40;99.90;;;;;;5048830;28;20427;-89
2023/08/18 11:25:17;;;;;;;14.52;12.18;;;23.50;99.90;;;;;;5046709;28;20361;-78
2023/08/18 11:27:44;;;;;;;15.85;14.07;;;23.50;99.90;;;;;;5046226;28;20076;-80
2023/08/18 11:30:14;;;;;;;14.60;12.52;;;23.60;99.90;;;;;;5046726;28;20116;-80
2023/08/18 11:32:41;;;;;;;16.25;12.48;;;23.60;99.90;;;;;;5049278;28;20044;-79
2023/08/18 11:35:11;;;;;;;13.27;11.88;;;23.70;99.90;;;;;;5041242;28;20029;-80
2023/08/18 11:37:47;;;;;;;11.07;9.88;;;23.90;99.90;;;;;;5037683;28;20060;-79
2023/08/18 11:40:15;;;;;;;12.52;11.10;;;24.10;99.90;;;;;;5042085;28;20549;-79
2023/08/18 11:42:47;;;;;;;14.73;12.75;;;24.30;99.90;;;;;;5049722;28;20033;-80
2023/08/18 11:45:23;;;;;;;12.45;11.15;;;24.50;99.90;;;;;;5046678;28;20048;-80
2023/08/18 11:48:03;;;;;;;14.77;12.32;;;24.70;99.90;;;;;;5045769;28;20126;-79
2023/08/18 11:50:38;;;;;;;13.90;11.50;;;24.90;99.90;;;;;;5049670;28;20045;-79
2023/08/18 11:53:09;;;;;;;14.43;12.88;;;25.00;99.90;;;;;;5044376;28;20064;-78
2023/08/18 11:55:38;;;;;;;15.38;13.50;;;25.10;99.90;;;;;;5035547;28;20044;-81
2023/08/18 11:58:08;;;;;;;14.57;12.07;;;25.10;99.90;;;;;;5061496;28;20078;-81
2023/08/18 12:00:36;;;;;;;15.75;13.80;;;25.00;99.90;;;;;;5047323;28;20047;-81
2023/08/18 12:03:07;;;;;;;16.65;13.30;;;24.90;99.90;;;;;;5046754;28;20048;-81
2023/08/18 12:05:37;;;;;;;13.57;12.15;;;24.80;99.90;;;;;;5039076;28;20128;-81
2023/08/18 12:08:08;;;;;;;14.20;12.70;;;24.90;99.90;;;;;;5044008;28;20202;-86
2023/08/18 12:10:34;;;;;;;15.07;13.30;;;24.90;99.90;;;;;;5043807;28;20056;-80
2023/08/18 12:13:00;;;;;;;14.18;12.32;;;25.00;99.90;;;;;;5043027;28;20049;-82
2023/08/18 12:15:26;;;;;;;14.00;12.60;;;25.20;99.90;;;;;;5042218;28;20258;-75
2023/08/18 12:17:53;;;;;;;14.73;13.13;;;25.30;99.90;;;;;;5042517;28;20041;-79
2023/08/18 12:20:19;;;;;;;13.27;11.82;;;25.50;99.90;;;;;;5044343;28;20055;-78
2023/08/18 12:22:49;;;;;;;15.45;13.60;;;25.50;99.90;;;;;;5048884;28;20536;-82
2023/08/18 12:25:15;;;;;;;13.70;12.18;;;25.70;99.90;;;;;;5038906;28;20063;-79
2023/08/18 12:27:45;;;;;;;13.90;11.55;;;25.70;99.90;;;;;;5039254;28;20049;-82
2023/08/18 12:30:11;;;;;;;14.50;12.63;;;25.80;99.90;;;;;;5041880;28;20041;-82
2023/08/18 12:32:37;;;;;;;14.77;12.48;;;25.90;99.90;;;;;;5041586;28;20153;-83
2023/08/18 12:35:04;;;;;;;15.37;13.13;;;25.90;99.90;;;;;;5047285;28;20141;-83